sensor_id;sensor_type;location;lat;lon;timestamp;pressure;altitude;pressure_sealevel;temperature
64488;BMP280;50864;45.050;39.014;2022-09-01T04:07:25;100449.88;;;28.10
64488;BMP280;50864;45.050;39.014;2022-09-01T04:09:52;100449.88;;;28.10
64488;BMP280;50864;45.050;39.014;2022-09-01T04:12:19;100441.66;;;27.83
64488;BMP280;50864;45.050;39.014;2022-09-01T04:14:46;100440.50;;;28.08
64488;BMP280;50864;45.050;39.014;2022-09-01T04:17:13;100441.19;;;28.35
64488;BMP280;50864;45.050;39.014;2022-09-01T04:20:01;100443.94;;;28.58
64488;BMP280;50864;45.050;39.014;2022-09-01T04:22:34;100450.75;;;28.93
64488;BMP280;50864;45.050;39.014;2022-09-01T04:25:04;100446.13;;;29.26
64488;BMP280;50864;45.050;39.014;2022-09-01T04:27:33;100450.09;;;29.60
64488;BMP280;50864;45.050;39.014;2022-09-01T04:30:09;100438.62;;;29.94
64488;BMP280;50864;45.050;39.014;2022-09-01T04:32:37;100449.31;;;30.24
64488;BMP280;50864;45.050;39.014;2022-09-01T04:35:06;100445.25;;;30.57
64488;BMP280;50864;45.050;39.014;2022-09-01T04:37:33;100444.88;;;30.84
64488;BMP280;50864;45.050;39.014;2022-09-01T04:40:02;100443.50;;;31.05
64488;BMP280;50864;45.050;39.014;2022-09-01T04:42:30;100445.22;;;31.27
64488;BMP280;50864;45.050;39.014;2022-09-01T04:44:58;100451.38;;;31.57
64488;BMP280;50864;45.050;39.014;2022-09-01T04:47:26;100452.56;;;31.93
64488;BMP280;50864;45.050;39.014;2022-09-01T04:50:12;100451.22;;;32.32
64488;BMP280;50864;45.050;39.014;2022-09-01T04:52:42;100444.37;;;32.67
64488;BMP280;50864;45.050;39.014;2022-09-01T04:55:14;100437.63;;;32.99
64488;BMP280;50864;45.050;39.014;2022-09-01T04:57:46;100438.69;;;33.41
64488;BMP280;50864;45.050;39.014;2022-09-01T05:00:17;100441.56;;;33.69
64488;BMP280;50864;45.050;39.014;2022-09-01T20:39:42;100438.03;;;33.86
64488;BMP280;50864;45.050;39.014;2022-09-01T20:45:10;100721.00;;;26.13
64488;BMP280;50864;45.050;39.014;2022-09-01T20:47:37;100721.37;;;26.11
64488;BMP280;50864;45.050;39.014;2022-09-01T20:50:10;100724.50;;;26.10
64488;BMP280;50864;45.050;39.014;2022-09-01T20:55:57;100741.38;;;26.08
64488;BMP280;50864;45.050;39.014;2022-09-01T20:58:31;100743.34;;;26.04
64488;BMP280;50864;45.050;39.014;2022-09-01T21:01:15;100744.91;;;26.02
64488;BMP280;50864;45.050;39.014;2022-09-01T21:09:14;100769.59;;;25.91
64488;BMP280;50864;45.050;39.014;2022-09-01T21:22:18;100772.75;;;25.51
64488;BMP280;50864;45.050;39.014;2022-09-01T21:24:45;100764.50;;;25.51
64488;BMP280;50864;45.050;39.014;2022-09-01T21:29:50;100776.69;;;25.46
64488;BMP280;50864;45.050;39.014;2022-09-01T21:32:18;100784.09;;;25.42
64488;BMP280;50864;45.050;39.014;2022-09-01T21:34:45;100783.69;;;25.40
64488;BMP280;50864;45.050;39.014;2022-09-01T21:37:11;100771.19;;;25.39
64488;BMP280;50864;45.050;39.014;2022-09-01T21:39:38;100774.72;;;25.36
64488;BMP280;50864;45.050;39.014;2022-09-01T21:42:06;100771.19;;;25.32
64488;BMP280;50864;45.050;39.014;2022-09-01T21:44:33;100780.97;;;25.29
64488;BMP280;50864;45.050;39.014;2022-09-01T21:47:00;100775.09;;;25.24
64488;BMP280;50864;45.050;39.014;2022-09-01T21:49:26;100775.47;;;25.22
64488;BMP280;50864;45.050;39.014;2022-09-01T21:51:53;100772.72;;;25.19
64488;BMP280;50864;45.050;39.014;2022-09-01T21:54:19;100784.44;;;25.16
64488;BMP280;50864;45.050;39.014;2022-09-01T21:56:46;100780.91;;;25.12
64488;BMP280;50864;45.050;39.014;2022-09-01T21:59:12;100786.78;;;25.10
64488;BMP280;50864;45.050;39.014;2022-09-01T22:01:42;100783.66;;;25.08
64488;BMP280;50864;45.050;39.014;2022-09-01T22:04:09;100780.09;;;25.04
64488;BMP280;50864;45.050;39.014;2022-09-01T22:06:37;100783.63;;;25.01
64488;BMP280;50864;45.050;39.014;2022-09-01T22:09:05;100785.19;;;24.99
64488;BMP280;50864;45.050;39.014;2022-09-01T22:11:34;100792.59;;;24.98
64488;BMP280;50864;45.050;39.014;2022-09-01T22:14:02;100800.03;;;24.94
64488;BMP280;50864;45.050;39.014;2022-09-01T22:16:30;100807.84;;;24.89
64488;BMP280;50864;45.050;39.014;2022-09-01T22:18:58;100803.88;;;24.83
64488;BMP280;50864;45.050;39.014;2022-09-01T22:21:24;100803.47;;;24.77
64488;BMP280;50864;45.050;39.014;2022-09-01T22:23:50;100797.97;;;24.73
64488;BMP280;50864;45.050;39.014;2022-09-01T22:26:28;100801.88;;;24.69
64488;BMP280;50864;45.050;39.014;2022-09-01T22:28:56;100806.13;;;24.63
64488;BMP280;50864;45.050;39.014;2022-09-01T22:31:25;100803.78;;;24.58
64488;BMP280;50864;45.050;39.014;2022-09-01T22:33:51;100814.69;;;24.54
64488;BMP280;50864;45.050;39.014;2022-09-01T22:36:23;100796.69;;;24.50
64488;BMP280;50864;45.050;39.014;2022-09-01T22:38:50;100809.16;;;24.47
64488;BMP280;50864;45.050;39.014;2022-09-01T22:41:22;100812.28;;;24.42
64488;BMP280;50864;45.050;39.014;2022-09-01T22:43:48;100806.00;;;24.38
64488;BMP280;50864;45.050;39.014;2022-09-01T22:46:17;100815.31;;;24.34
64488;BMP280;50864;45.050;39.014;2022-09-01T22:48:43;100817.69;;;24.32
64488;BMP280;50864;45.050;39.014;2022-09-01T22:51:11;100820.41;;;24.28
64488;BMP280;50864;45.050;39.014;2022-09-01T22:53:40;100819.97;;;24.26
64488;BMP280;50864;45.050;39.014;2022-09-01T22:56:16;100824.63;;;24.22
64488;BMP280;50864;45.050;39.014;2022-09-01T22:58:46;100834.78;;;24.18
64488;BMP280;50864;45.050;39.014;2022-09-01T23:01:15;100827.69;;;24.13
64488;BMP280;50864;45.050;39.014;2022-09-01T23:03:43;100826.09;;;24.09
64488;BMP280;50864;45.050;39.014;2022-09-01T23:06:12;100819.81;;;24.05
64488;BMP280;50864;45.050;39.014;2022-09-01T23:08:39;100831.50;;;24.02
64488;BMP280;50864;45.050;39.014;2022-09-01T23:11:06;100833.00;;;23.96
64488;BMP280;50864;45.050;39.014;2022-09-01T23:13:34;100831.06;;;23.93
64488;BMP280;50864;45.050;39.014;2022-09-01T23:16:02;100843.09;;;23.88
64488;BMP280;50864;45.050;39.014;2022-09-01T23:18:30;100841.91;;;23.86
64488;BMP280;50864;45.050;39.014;2022-09-01T23:20:58;100825.88;;;23.84
64488;BMP280;50864;45.050;39.014;2022-09-01T23:23:24;100833.72;;;23.86
64488;BMP280;50864;45.050;39.014;2022-09-01T23:25:50;100849.00;;;23.90
64488;BMP280;50864;45.050;39.014;2022-09-01T23:28:17;100845.53;;;23.93
64488;BMP280;50864;45.050;39.014;2022-09-01T23:30:45;100849.03;;;23.94
64488;BMP280;50864;45.050;39.014;2022-09-01T23:33:22;100840.06;;;23.93
64488;BMP280;50864;45.050;39.014;2022-09-01T23:35:52;100842.78;;;23.93
64488;BMP280;50864;45.050;39.014;2022-09-01T23:38:20;100851.34;;;23.92
64488;BMP280;50864;45.050;39.014;2022-09-01T23:40:49;100845.09;;;23.91
64488;BMP280;50864;45.050;39.014;2022-09-01T23:43:18;100855.62;;;23.89
64488;BMP280;50864;45.050;39.014;2022-09-01T23:45:46;100852.09;;;23.89
64488;BMP280;50864;45.050;39.014;2022-09-01T23:48:14;100851.69;;;23.87
64488;BMP280;50864;45.050;39.014;2022-09-01T23:53:24;100864.94;;;23.85
64488;BMP280;50864;45.050;39.014;2022-09-01T23:55:53;100867.25;;;23.83
64488;BMP280;50864;45.050;39.014;2022-09-01T23:58:22;100865.72;;;23.82
